Time;durP1;ratioP1;P1;durP2;ratioP2;P2;SDS_P1;SDS_P2;PMS_P1;PMS_P2;Temp;Humidity;BMP_temperature;BMP_pressure;BME280_temperature;BME280_humidity;BME280_pressure;Samples;Min_cycle;Max_cycle;Signal;HPM_P1;HPM_P2
2023/05/11 00:01:36;;;;;;;9.47;5.47;;;;;;;;;;5034550;28;20439;-88
2023/05/11 00:04:02;;;;;;;13.40;6.73;;;;;;;;;;5033148;28;20413;-87
2023/05/11 00:06:28;;;;;;;10.60;5.63;;;;;;;;;;5033842;28;20420;-87
2023/05/11 00:08:53;;;;;;;14.63;6.70;;;;;;;;;;5034410;28;20476;-88
2023/05/11 00:11:20;;;;;;;9.37;4.70;;;;;;;;;;5034622;28;20411;-88
2023/05/11 00:13:45;;;;;;;9.07;5.27;;;;;;;;;;5034679;28;20457;-88
2023/05/11 00:16:11;;;;;;;8.57;5.10;;;;;;;;;;5037947;28;20983;-86
2023/05/11 00:18:37;;;;;;;9.17;4.90;;;;;;;;;;5043628;28;20910;-88
2023/05/11 00:21:03;;;;;;;13.13;6.90;;;;;;;;;;5042495;28;20886;-88
2023/05/11 00:23:30;;;;;;;10.00;5.10;;;;;;;;;;5044741;28;20958;-88
2023/05/11 00:25:55;;;;;;;9.57;5.67;;;;;;;;;;5043436;28;20499;-77
2023/05/11 00:28:22;;;;;;;10.03;4.70;;;;;;;;;;5042977;28;20438;-78
2023/05/11 00:30:48;;;;;;;10.23;5.63;;;;;;;;;;5044602;28;20709;-88
2023/05/11 00:33:14;;;;;;;9.80;5.30;;;;;;;;;;5042813;28;20408;-86
2023/05/11 00:35:40;;;;;;;11.53;6.50;;;;;;;;;;5043257;28;20958;-77
2023/05/11 00:38:06;;;;;;;9.73;5.53;;;;;;;;;;5044513;28;20932;-77
2023/05/11 00:40:32;;;;;;;8.60;5.73;;;;;;;;;;5042627;28;20417;-86
2023/05/11 00:42:58;;;;;;;13.47;5.47;;;;;;;;;;5043363;28;20410;-77
2023/05/11 00:45:24;;;;;;;8.60;5.60;;;;;;;;;;5044241;28;20911;-85
2023/05/11 00:47:50;;;;;;;11.47;6.47;;;;;;;;;;5023608;28;21008;-77
2023/05/11 00:50:17;;;;;;;9.47;5.70;;;;;;;;;;5043048;28;20425;-84
2023/05/11 00:52:43;;;;;;;11.60;5.50;;;;;;;;;;5042466;28;20646;-80
2023/05/11 00:55:09;;;;;;;9.00;4.77;;;;;;;;;;5044084;28;20995;-78
2023/05/11 00:57:35;;;;;;;11.00;6.67;;;;;;;;;;5042893;28;20505;-80
2023/05/11 01:00:03;;;;;;;11.10;6.73;;;;;;;;;;5042576;28;20396;-86
2023/05/11 01:02:29;;;;;;;15.00;6.83;;;;;;;;;;5043589;28;20416;-77
2023/05/11 01:04:55;;;;;;;11.10;5.53;;;;;;;;;;5042881;28;20479;-89
2023/05/11 01:07:21;;;;;;;13.30;6.50;;;;;;;;;;5042542;28;20848;-88
2023/05/11 01:09:56;;;;;;;11.37;6.20;;;;;;;;;;5043597;28;20291;-77
2023/05/11 01:12:29;;;;;;;11.67;6.23;;;;;;;;;;5036102;28;20178;-80
2023/05/11 01:14:59;;;;;;;12.70;6.40;;;;;;;;;;5033312;28;20504;-88
2023/05/11 01:17:29;;;;;;;10.37;6.87;;;;;;;;;;5032620;28;20432;-86
2023/05/11 01:19:56;;;;;;;10.80;5.97;;;;;;;;;;5033258;28;21050;-77
2023/05/11 01:22:41;;;;;;;8.60;5.77;;;;;;;;;;5033246;28;20946;-77
2023/05/11 01:25:15;;;;;;;10.93;5.70;;;;;;;;;;5033260;28;20419;-77
2023/05/11 01:27:58;;;;;;;8.93;6.10;;;;;;;;;;5033310;28;20480;-84
2023/05/11 01:30:39;;;;;;;11.50;6.70;;;;;;;;;;5033230;28;20772;-77
2023/05/11 01:33:07;;;;;;;10.03;5.60;;;;;;;;;;5032949;28;20503;-77
2023/05/11 01:35:35;;;;;;;9.93;5.43;;;;;;;;;;5033041;28;20492;-82
2023/05/11 01:38:02;;;;;;;10.00;6.50;;;;;;;;;;5032974;28;20445;-77
2023/05/11 01:40:30;;;;;;;11.17;6.07;;;;;;;;;;5032890;28;20418;-77
2023/05/11 01:43:00;;;;;;;10.47;6.70;;;;;;;;;;5033023;28;20412;-79
2023/05/11 01:45:28;;;;;;;9.40;5.43;;;;;;;;;;5032903;28;20413;-82
2023/05/11 01:47:54;;;;;;;9.60;5.37;;;;;;;;;;5032734;28;20417;-88
2023/05/11 01:50:22;;;;;;;8.07;5.17;;;;;;;;;;5032935;28;20415;-79
2023/05/11 01:52:48;;;;;;;10.10;5.53;;;;;;;;;;5033016;28;20497;-87
2023/05/11 01:55:15;;;;;;;9.40;5.10;;;;;;;;;;5032951;28;20563;-82
2023/05/11 01:57:40;;;;;;;7.67;4.57;;;;;;;;;;5032947;28;20827;-77
2023/05/11 02:00:07;;;;;;;9.00;6.17;;;;;;;;;;5033143;28;20406;-86
2023/05/11 02:02:33;;;;;;;8.30;5.23;;;;;;;;;;5032544;28;20417;-87
2023/05/11 02:05:00;;;;;;;9.10;5.60;;;;;;;;;;5032933;28;20419;-87
2023/05/11 02:07:29;;;;;;;13.23;6.40;;;;;;;;;;5032767;28;20770;-82
2023/05/11 02:09:56;;;;;;;8.90;4.77;;;;;;;;;;5032702;28;20553;-77
2023/05/11 02:12:22;;;;;;;9.30;6.10;;;;;;;;;;5032642;28;20879;-78
2023/05/11 02:14:48;;;;;;;11.97;5.67;;;;;;;;;;5032740;28;20473;-88
2023/05/11 02:17:15;;;;;;;11.47;6.60;;;;;;;;;;5032399;28;20409;-87
2023/05/11 02:19:42;;;;;;;11.00;5.20;;;;;;;;;;5032732;28;20413;-78
2023/05/11 02:22:08;;;;;;;10.63;6.03;;;;;;;;;;5032672;28;20467;-88
2023/05/11 02:24:35;;;;;;;8.70;4.93;;;;;;;;;;5014911;28;20421;-83
2023/05/11 02:27:01;;;;;;;9.10;5.50;;;;;;;;;;5032740;28;20749;-80
2023/05/11 02:29:27;;;;;;;10.80;7.80;;;;;;;;;;5046202;28;20433;-88
2023/05/11 02:31:56;;;;;;;13.20;6.87;;;;;;;;;;5056266;28;20413;-87
2023/05/11 02:34:24;;;;;;;10.17;6.40;;;;;;;;;;5056276;28;20425;-88
2023/05/11 02:36:52;;;;;;;8.17;5.60;;;;;;;;;;5056241;28;20519;-88
2023/05/11 02:39:20;;;;;;;9.50;5.67;;;;;;;;;;5056215;28;20408;-79
2023/05/11 02:41:49;;;;;;;10.67;5.97;;;;;;;;;;5056269;28;20933;-88
2023/05/11 02:44:16;;;;;;;9.70;6.60;;;;;;;;;;5056197;28;20809;-88
2023/05/11 02:46:43;;;;;;;10.90;6.83;;;;;;;;;;5056198;28;20766;-87
2023/05/11 02:49:09;;;;;;;9.87;6.17;;;;;;;;;;5037680;28;20980;-83
2023/05/11 02:51:37;;;;;;;12.23;6.60;;;;;;;;;;5055977;28;20424;-87
2023/05/11 02:54:06;;;;;;;7.33;4.60;;;;;;;;;;5038129;28;20412;-87
2023/05/11 02:56:31;;;;;;;9.60;5.67;;;;;;;;;;5055986;28;20565;-88
2023/05/11 02:58:57;;;;;;;8.67;4.70;;;;;;;;;;5055868;28;20446;-88
2023/05/11 03:01:23;;;;;;;8.47;4.77;;;;;;;;;;5055797;28;20408;-89
2023/05/11 03:03:50;;;;;;;8.30;4.87;;;;;;;;;;5055393;28;20892;-78
2023/05/11 03:06:15;;;;;;;4.70;3.00;;;;;;;;;;5055798;28;20443;-83
2023/05/11 03:08:42;;;;;;;6.90;3.10;;;;;;;;;;5055518;28;20459;-83
2023/05/11 03:11:09;;;;;;;6.80;3.37;;;;;;;;;;5055621;28;20251;-85
2023/05/11 03:13:35;;;;;;;6.23;3.47;;;;;;;;;;5055652;28;20749;-79
2023/05/11 03:16:01;;;;;;;7.60;4.03;;;;;;;;;;5055426;28;20516;-87
2023/05/11 03:18:28;;;;;;;5.70;3.57;;;;;;;;;;5054984;28;20409;-83
2023/05/11 03:20:54;;;;;;;5.50;3.60;;;;;;;;;;5055407;28;20453;-88
2023/05/11 03:23:21;;;;;;;7.40;3.80;;;;;;;;;;5055370;28;20928;-87
2023/05/11 03:25:47;;;;;;;7.17;3.83;;;;;;;;;;5037449;28;20430;-84
2023/05/11 03:28:14;;;;;;;6.20;3.43;;;;;;;;;;5055407;28;20499;-85
2023/05/11 03:30:42;;;;;;;6.83;4.00;;;;;;;;;;5055245;28;20422;-87
2023/05/11 03:33:08;;;;;;;7.83;4.60;;;;;;;;;;5054894;28;20405;-80
2023/05/11 03:35:36;;;;;;;7.33;4.13;;;;;;;;;;5055239;28;20873;-81
2023/05/11 03:38:04;;;;;;;5.97;3.90;;;;;;;;;;5055153;28;20416;-87
2023/05/11 03:40:32;;;;;;;7.40;3.83;;;;;;;;;;5054865;28;20414;-88
2023/05/11 03:42:59;;;;;;;5.87;3.80;;;;;;;;;;5055025;28;20413;-87
2023/05/11 03:45:25;;;;;;;7.23;4.43;;;;;;;;;;5055053;28;20444;-82
2023/05/11 03:47:51;;;;;;;12.23;4.20;;;;;;;;;;5054652;28;20409;-77
2023/05/11 03:50:18;;;;;;;9.93;5.70;;;;;;;;;;5054848;28;20408;-87
2023/05/11 03:52:44;;;;;;;9.27;5.70;;;;;;;;;;5054992;28;20422;-78
2023/05/11 03:55:11;;;;;;;7.67;4.70;;;;;;;;;;5054636;28;20464;-86
2023/05/11 03:57:37;;;;;;;6.50;4.07;;;;;;;;;;5036945;28;20425;-87
2023/05/11 04:00:03;;;;;;;10.00;6.10;;;;;;;;;;5054641;28;20998;-81
2023/05/11 04:02:29;;;;;;;9.43;5.30;;;;;;;;;;5054389;28;20420;-84
2023/05/11 04:04:55;;;;;;;8.20;4.17;;;;;;;;;;5054646;28;20518;-86
2023/05/11 04:07:21;;;;;;;6.13;4.10;;;;;;;;;;5054582;28;20425;-87
2023/05/11 04:09:47;;;;;;;11.83;6.03;;;;;;;;;;5054381;28;20229;-78
2023/05/11 04:12:12;;;;;;;8.43;4.40;;;;;;;;;;5054396;28;20417;-86
2023/05/11 04:14:38;;;;;;;8.70;5.60;;;;;;;;;;5053487;28;20770;-90
2023/05/11 04:17:04;;;;;;;8.27;5.50;;;;;;;;;;5054039;28;20192;-87
2023/05/11 04:19:30;;;;;;;8.87;4.87;;;;;;;;;;5054287;28;20182;-86
2023/05/11 04:21:56;;;;;;;8.07;4.50;;;;;;;;;;5054272;28;20425;-77
2023/05/11 04:24:22;;;;;;;7.77;4.20;;;;;;;;;;5054008;28;20538;-87
2023/05/11 04:26:48;;;;;;;9.00;5.97;;;;;;;;;;5054105;28;20170;-89
2023/05/11 04:29:14;;;;;;;7.60;4.73;;;;;;;;;;5054211;28;20497;-88
2023/05/11 04:31:40;;;;;;;10.57;5.80;;;;;;;;;;5053638;28;20420;-86
2023/05/11 04:34:07;;;;;;;10.40;6.57;;;;;;;;;;5036075;28;20449;-84
2023/05/11 04:36:33;;;;;;;10.60;5.73;;;;;;;;;;5053922;28;20232;-85
2023/05/11 04:38:59;;;;;;;6.67;5.03;;;;;;;;;;5053830;28;20403;-86
2023/05/11 04:41:25;;;;;;;8.30;4.83;;;;;;;;;;5053967;28;20825;-83
2023/05/11 04:43:51;;;;;;;10.63;6.23;;;;;;;;;;5053856;28;20443;-84
2023/05/11 04:46:16;;;;;;;6.80;3.67;;;;;;;;;;5053718;28;20412;-86
2023/05/11 04:48:42;;;;;;;5.60;4.53;;;;;;;;;;5035454;28;20218;-86
2023/05/11 04:51:08;;;;;;;9.87;5.83;;;;;;;;;;5053620;28;20247;-87
2023/05/11 04:53:34;;;;;;;8.73;4.83;;;;;;;;;;5053021;28;20415;-87
2023/05/11 04:56:00;;;;;;;9.07;5.43;;;;;;;;;;5035536;28;20476;-87
2023/05/11 04:58:26;;;;;;;9.50;5.57;;;;;;;;;;5053643;28;20428;-87
2023/05/11 05:00:52;;;;;;;6.83;4.37;;;;;;;;;;5053529;28;20415;-86
2023/05/11 05:03:18;;;;;;;7.17;4.33;;;;;;;;;;5053022;28;20171;-87
2023/05/11 05:05:44;;;;;;;9.10;5.10;;;;;;;;;;5054157;28;20172;-84
2023/05/11 05:08:10;;;;;;;9.40;5.00;;;;;;;;;;5053577;28;20409;-86
2023/05/11 05:10:36;;;;;;;8.90;5.60;;;;;;;;;;5053374;28;20620;-86
2023/05/11 05:13:03;;;;;;;8.00;5.20;;;;;;;;;;5053386;28;20439;-86
2023/05/11 05:15:29;;;;;;;10.57;6.80;;;;;;;;;;5053171;28;20816;-87
2023/05/11 05:17:55;;;;;;;8.90;5.70;;;;;;;;;;5035032;28;20443;-86
2023/05/11 05:20:21;;;;;;;8.80;5.23;;;;;;;;;;5053197;28;20444;-85
2023/05/11 05:22:46;;;;;;;9.67;5.13;;;;;;;;;;5053113;28;20257;-85
2023/05/11 05:25:12;;;;;;;7.37;4.10;;;;;;;;;;5052972;28;20634;-86
2023/05/11 05:27:38;;;;;;;8.27;5.17;;;;;;;;;;5053063;28;20183;-86
2023/05/11 05:30:05;;;;;;;8.10;4.20;;;;;;;;;;5053058;28;20530;-85
2023/05/11 05:32:30;;;;;;;8.77;4.53;;;;;;;;;;5052690;28;20409;-82
2023/05/11 05:34:56;;;;;;;8.07;4.50;;;;;;;;;;5052755;28;20968;-83
2023/05/11 05:37:22;;;;;;;7.17;4.20;;;;;;;;;;5052797;28;20917;-84
2023/05/11 05:39:48;;;;;;;6.53;3.40;;;;;;;;;;5052912;28;20179;-83
2023/05/11 05:42:14;;;;;;;6.43;3.60;;;;;;;;;;5051612;28;20176;-84
2023/05/11 05:44:40;;;;;;;7.50;3.97;;;;;;;;;;5052066;28;20637;-86
2023/05/11 05:47:06;;;;;;;5.13;2.50;;;;;;;;;;5052451;28;20180;-87
2023/05/11 05:49:32;;;;;;;7.93;3.20;;;;;;;;;;5052824;28;20244;-87
2023/05/11 05:51:58;;;;;;;6.13;3.40;;;;;;;;;;5034833;28;20183;-84
2023/05/11 05:54:23;;;;;;;6.77;3.90;;;;;;;;;;5034909;28;20184;-84
2023/05/11 05:56:50;;;;;;;7.80;3.53;;;;;;;;;;5034817;28;20180;-87
2023/05/11 05:59:18;;;;;;;6.00;3.57;;;;;;;;;;5052830;28;20904;-87
2023/05/11 06:01:46;;;;;;;6.73;2.50;;;;;;;;;;5052950;28;20905;-83
2023/05/11 06:04:12;;;;;;;8.10;3.50;;;;;;;;;;5053888;28;20513;-84
2023/05/11 06:06:38;;;;;;;8.27;3.87;;;;;;;;;;5056796;28;20418;-83
2023/05/11 06:09:05;;;;;;;7.53;2.60;;;;;;;;;;5056543;28;20466;-86
2023/05/11 06:11:37;;;;;;;10.77;4.30;;;;;;;;;;5038866;28;20567;-88
2023/05/11 06:14:02;;;;;;;9.53;3.57;;;;;;;;;;5056643;28;20521;-86
2023/05/11 06:16:29;;;;;;;6.67;4.07;;;;;;;;;;5056084;28;20478;-85
2023/05/11 06:18:55;;;;;;;9.73;4.80;;;;;;;;;;5056552;28;20337;-85
2023/05/11 06:21:21;;;;;;;8.87;3.70;;;;;;;;;;5056499;28;20442;-87
2023/05/11 06:23:47;;;;;;;6.87;3.30;;;;;;;;;;5038554;28;20435;-86
2023/05/11 06:26:12;;;;;;;7.33;4.00;;;;;;;;;;5056449;28;20412;-86
2023/05/11 06:28:38;;;;;;;9.30;4.10;;;;;;;;;;5056286;28;20475;-87
2023/05/11 06:31:04;;;;;;;6.67;4.23;;;;;;;;;;5056114;28;20272;-85
2023/05/11 06:33:30;;;;;;;10.30;5.10;;;;;;;;;;5055894;28;20443;-82
2023/05/11 06:35:56;;;;;;;7.23;4.57;;;;;;;;;;5056044;28;20474;-82
2023/05/11 06:38:22;;;;;;;8.30;4.40;;;;;;;;;;5056200;28;20411;-83
2023/05/11 06:40:52;;;;;;;11.00;4.17;;;;;;;;;;5056242;28;20748;-85
2023/05/11 06:43:18;;;;;;;5.60;3.80;;;;;;;;;;5056077;28;20857;-86
2023/05/11 06:45:46;;;;;;;9.20;4.70;;;;;;;;;;5055989;28;20418;-85
2023/05/11 06:48:12;;;;;;;10.07;4.90;;;;;;;;;;5055816;28;20222;-87
2023/05/11 06:50:38;;;;;;;8.90;4.30;;;;;;;;;;5038142;28;20431;-81
2023/05/11 06:53:04;;;;;;;7.50;4.23;;;;;;;;;;5055991;28;20442;-80
2023/05/11 06:55:30;;;;;;;9.77;5.57;;;;;;;;;;5055741;28;20529;-81
2023/05/11 06:57:56;;;;;;;8.93;4.10;;;;;;;;;;5055815;28;20411;-81
2023/05/11 07:00:22;;;;;;;10.23;5.13;;;;;;;;;;5055686;28;20906;-80
2023/05/11 07:02:48;;;;;;;7.27;4.43;;;;;;;;;;5055459;28;20187;-80
2023/05/11 07:05:14;;;;;;;8.43;4.67;;;;;;;;;;5055771;28;20442;-86
2023/05/11 07:07:40;;;;;;;7.20;4.30;;;;;;;;;;5055738;28;20921;-83
2023/05/11 07:10:07;;;;;;;9.07;4.47;;;;;;;;;;5055460;28;20577;-81
2023/05/11 07:12:32;;;;;;;11.43;4.93;;;;;;;;;;5055396;28;20504;-84
2023/05/11 07:14:58;;;;;;;8.50;5.00;;;;;;;;;;5055398;28;20878;-81
2023/05/11 07:17:24;;;;;;;10.77;4.77;;;;;;;;;;5054472;28;20443;-81
2023/05/11 07:19:51;;;;;;;11.87;5.30;;;;;;;;;;5055381;28;20761;-81
2023/05/11 07:22:17;;;;;;;9.67;5.70;;;;;;;;;;5055390;28;20229;-80
2023/05/11 07:24:43;;;;;;;9.23;4.70;;;;;;;;;;5037428;28;20522;-82
2023/05/11 07:27:10;;;;;;;9.77;5.50;;;;;;;;;;5037524;28;20516;-85
2023/05/11 07:29:35;;;;;;;9.90;5.47;;;;;;;;;;5055223;28;20592;-82
2023/05/11 07:32:01;;;;;;;11.90;5.43;;;;;;;;;;5054710;28;20450;-82
2023/05/11 07:34:27;;;;;;;12.60;6.10;;;;;;;;;;5055062;28;20180;-80
2023/05/11 07:36:53;;;;;;;11.13;5.70;;;;;;;;;;5055191;28;20422;-83
2023/05/11 07:39:19;;;;;;;11.80;4.73;;;;;;;;;;5055134;28;20665;-80
2023/05/11 07:41:46;;;;;;;10.40;5.17;;;;;;;;;;5054976;28;20456;-87
2023/05/11 07:44:11;;;;;;;8.83;4.37;;;;;;;;;;5055078;28;20173;-83
2023/05/11 07:46:37;;;;;;;10.37;5.50;;;;;;;;;;5054663;28;20556;-89
2023/05/11 07:49:03;;;;;;;12.30;4.97;;;;;;;;;;5055135;28;20453;-89
2023/05/11 07:51:30;;;;;;;9.33;4.80;;;;;;;;;;5037062;28;20926;-88
2023/05/11 07:53:55;;;;;;;6.93;4.63;;;;;;;;;;5055046;28;20774;-88
2023/05/11 07:56:21;;;;;;;6.80;4.40;;;;;;;;;;5054763;28;20474;-89
2023/05/11 07:58:47;;;;;;;9.30;4.47;;;;;;;;;;5054805;28;20409;-83
2023/05/11 08:01:13;;;;;;;8.30;3.80;;;;;;;;;;5054368;28;20451;-80
2023/05/11 08:03:42;;;;;;;11.43;4.80;;;;;;;;;;5054713;28;20575;-86
2023/05/11 08:06:08;;;;;;;9.33;3.90;;;;;;;;;;5054568;28;20404;-84
2023/05/11 08:08:34;;;;;;;8.80;4.67;;;;;;;;;;5054380;28;20551;-85
2023/05/11 08:11:00;;;;;;;8.10;3.80;;;;;;;;;;5054383;28;20889;-80
2023/05/11 08:13:27;;;;;;;6.40;4.10;;;;;;;;;;5054397;28;20642;-84
2023/05/11 08:15:53;;;;;;;7.63;3.73;;;;;;;;;;5054338;28;20475;-85
2023/05/11 08:18:19;;;;;;;9.30;4.87;;;;;;;;;;5054003;28;20408;-85
2023/05/11 08:20:44;;;;;;;8.53;4.23;;;;;;;;;;5054374;28;20899;-84
2023/05/11 08:23:15;;;;;;;9.50;4.73;;;;;;;;;;5054251;28;20229;-85
2023/05/11 08:25:42;;;;;;;10.00;4.43;;;;;;;;;;5054270;28;20937;-85
2023/05/11 08:28:08;;;;;;;10.03;4.70;;;;;;;;;;5053206;28;20403;-87
2023/05/11 08:30:33;;;;;;;9.30;4.90;;;;;;;;;;5054139;28;20423;-85
2023/05/11 08:32:59;;;;;;;10.33;4.50;;;;;;;;;;5053676;28;20168;-81
2023/05/11 08:35:26;;;;;;;9.57;4.43;;;;;;;;;;5054037;28;20248;-85
2023/05/11 08:37:51;;;;;;;9.80;4.63;;;;;;;;;;5036105;28;20506;-85
2023/05/11 08:40:18;;;;;;;10.40;4.20;;;;;;;;;;5053843;28;20455;-85
2023/05/11 08:42:46;;;;;;;7.30;3.10;;;;;;;;;;5054012;28;20179;-88
2023/05/11 08:45:12;;;;;;;8.27;4.03;;;;;;;;;;5053833;28;20782;-83
2023/05/11 08:47:38;;;;;;;6.57;4.00;;;;;;;;;;5053545;28;20416;-88
2023/05/11 08:50:04;;;;;;;7.87;3.10;;;;;;;;;;5053791;28;20429;-82
2023/05/11 08:52:30;;;;;;;8.80;4.17;;;;;;;;;;5053708;28;20414;-83
2023/05/11 08:54:55;;;;;;;6.27;2.90;;;;;;;;;;5035937;28;20470;-83
2023/05/11 08:57:22;;;;;;;9.47;3.37;;;;;;;;;;5053756;28;20501;-88
2023/05/11 08:59:48;;;;;;;13.10;4.30;;;;;;;;;;5053508;28;20537;-82
2023/05/11 09:02:18;;;;;;;9.20;3.77;;;;;;;;;;5053110;28;20505;-82
2023/05/11 09:04:48;;;;;;;7.73;4.60;;;;;;;;;;5035346;28;20841;-82
2023/05/11 09:07:15;;;;;;;8.83;3.17;;;;;;;;;;5053383;28;20440;-83
2023/05/11 09:09:41;;;;;;;8.63;3.60;;;;;;;;;;5053156;28;20458;-85
2023/05/11 09:12:10;;;;;;;8.50;3.70;;;;;;;;;;5053326;28;20407;-83
2023/05/11 09:14:36;;;;;;;8.60;4.10;;;;;;;;;;5053125;28;20415;-83
2023/05/11 09:17:03;;;;;;;9.87;4.33;;;;;;;;;;5035044;28;20555;-85
2023/05/11 09:19:28;;;;;;;6.60;3.30;;;;;;;;;;5053462;28;20767;-84
2023/05/11 09:21:54;;;;;;;7.47;3.97;;;;;;;;;;5053132;28;20418;-83
2023/05/11 09:24:21;;;;;;;8.17;4.20;;;;;;;;;;5053082;28;20417;-83
2023/05/11 09:26:47;;;;;;;8.40;4.47;;;;;;;;;;5053114;28;20410;-82
2023/05/11 09:29:14;;;;;;;8.13;3.30;;;;;;;;;;5053033;28;20776;-83
2023/05/11 09:31:44;;;;;;;6.20;3.67;;;;;;;;;;5052782;28;20757;-83
2023/05/11 09:34:14;;;;;;;7.77;4.33;;;;;;;;;;5052993;28;20409;-84
2023/05/11 09:36:41;;;;;;;9.73;4.70;;;;;;;;;;5052969;28;20470;-82
2023/05/11 09:39:07;;;;;;;12.00;5.47;;;;;;;;;;5052745;28;20955;-85
2023/05/11 09:41:33;;;;;;;10.60;5.20;;;;;;;;;;5052827;28;20418;-83
2023/05/11 09:44:07;;;;;;;8.60;5.30;;;;;;;;;;5052869;28;20465;-83
2023/05/11 09:46:33;;;;;;;10.57;4.23;;;;;;;;;;5052486;28;20182;-86
2023/05/11 09:49:00;;;;;;;7.27;4.27;;;;;;;;;;5052884;28;20498;-86
2023/05/11 09:51:30;;;;;;;10.43;4.57;;;;;;;;;;5052716;28;20481;-84
2023/05/11 09:53:56;;;;;;;7.17;4.00;;;;;;;;;;5052971;28;20416;-86
2023/05/11 09:56:22;;;;;;;8.50;4.30;;;;;;;;;;5052716;28;20964;-87
2023/05/11 09:58:50;;;;;;;12.33;5.43;;;;;;;;;;5052760;28;20416;-86
2023/05/11 10:01:16;;;;;;;12.43;5.37;;;;;;;;;;5034487;28;20482;-84
2023/05/11 10:03:50;;;;;;;7.90;4.37;;;;;;;;;;5052685;28;20411;-86
2023/05/11 10:06:16;;;;;;;7.70;4.53;;;;;;;;;;5052628;28;20470;-84
2023/05/11 10:08:42;;;;;;;7.20;5.43;;;;;;;;;;5052449;28;20857;-86
2023/05/11 10:11:08;;;;;;;5.60;3.83;;;;;;;;;;5052551;28;20411;-86
2023/05/11 10:13:36;;;;;;;7.67;4.57;;;;;;;;;;5052642;28;20411;-87
2023/05/11 10:16:03;;;;;;;10.60;5.13;;;;;;;;;;5052090;28;20615;-82
2023/05/11 10:18:31;;;;;;;5.00;3.00;;;;;;;;;;5052526;28;20398;-86
2023/05/11 10:20:57;;;;;;;8.23;4.37;;;;;;;;;;5052577;28;20407;-83
2023/05/11 10:23:24;;;;;;;7.00;3.90;;;;;;;;;;5052525;28;20812;-87
2023/05/11 10:25:51;;;;;;;10.33;4.27;;;;;;;;;;5052406;28;20506;-86
2023/05/11 10:28:17;;;;;;;6.90;4.53;;;;;;;;;;5052475;28;20442;-86
2023/05/11 10:30:43;;;;;;;5.80;4.13;;;;;;;;;;5052111;28;20443;-86
2023/05/11 10:33:10;;;;;;;8.17;3.23;;;;;;;;;;5052448;28;20409;-86
2023/05/11 10:35:37;;;;;;;5.60;3.30;;;;;;;;;;5052305;28;20561;-85
2023/05/11 10:38:03;;;;;;;7.53;4.30;;;;;;;;;;5052286;28;20465;-85
2023/05/11 10:40:29;;;;;;;8.13;3.80;;;;;;;;;;5052265;28;20406;-85
2023/05/11 10:43:08;;;;;;;5.40;3.77;;;;;;;;;;5052303;28;20902;-86
2023/05/11 10:45:53;;;;;;;6.00;3.97;;;;;;;;;;5051910;28;20476;-86
2023/05/11 10:48:30;;;;;;;6.07;4.10;;;;;;;;;;5052262;28;20442;-82
2023/05/11 10:51:16;;;;;;;6.80;3.50;;;;;;;;;;5034954;28;20464;-85
2023/05/11 10:54:00;;;;;;;6.13;4.20;;;;;;;;;;5038028;28;20426;-86
2023/05/11 10:56:36;;;;;;;5.97;3.60;;;;;;;;;;5055697;28;20526;-87
2023/05/11 10:59:15;;;;;;;7.53;4.37;;;;;;;;;;5055917;28;20405;-84
2023/05/11 11:01:41;;;;;;;5.90;5.07;;;;;;;;;;5055360;28;20403;-83
2023/05/11 11:04:19;;;;;;;7.30;5.03;;;;;;;;;;5055707;28;20407;-84
2023/05/11 11:06:45;;;;;;;7.67;2.90;;;;;;;;;;5055704;28;20429;-82
2023/05/11 11:09:15;;;;;;;5.20;3.63;;;;;;;;;;5034196;28;20470;-82
2023/05/11 11:11:44;;;;;;;6.40;4.03;;;;;;;;;;5035655;28;20494;-82
2023/05/11 11:14:11;;;;;;;6.40;4.37;;;;;;;;;;5035600;28;20461;-82
2023/05/11 11:16:37;;;;;;;6.00;3.70;;;;;;;;;;5033870;28;20522;-82
2023/05/11 11:19:22;;;;;;;7.73;4.67;;;;;;;;;;5035483;28;20834;-81
2023/05/11 11:21:48;;;;;;;5.60;3.73;;;;;;;;;;5035488;28;20419;-82
2023/05/11 11:24:34;;;;;;;7.50;4.23;;;;;;;;;;5035465;28;20926;-82
2023/05/11 11:27:00;;;;;;;5.57;3.60;;;;;;;;;;5035214;28;20424;-82
2023/05/11 11:29:27;;;;;;;5.97;4.47;;;;;;;;;;5035369;28;20408;-85
2023/05/11 11:31:52;;;;;;;8.73;3.57;;;;;;;;;;5034937;28;20420;-86
2023/05/11 11:34:27;;;;;;;6.03;4.20;;;;;;;;;;5033880;28;20405;-86
2023/05/11 11:36:57;;;;;;;8.37;5.40;;;;;;;;;;5035150;28;20217;-82
2023/05/11 11:39:26;;;;;;;6.83;4.10;;;;;;;;;;5035134;28;20444;-81
2023/05/11 11:42:02;;;;;;;7.50;4.77;;;;;;;;;;5035072;28;20478;-82
2023/05/11 11:44:28;;;;;;;9.63;5.07;;;;;;;;;;5035041;28;20412;-83
2023/05/11 11:47:10;;;;;;;5.03;3.70;;;;;;;;;;5034644;28;20412;-82
2023/05/11 11:49:36;;;;;;;6.80;4.60;;;;;;;;;;5034856;28;20414;-80
2023/05/11 11:52:03;;;;;;;5.93;3.90;;;;;;;;;;5034891;28;20415;-80
2023/05/11 11:54:41;;;;;;;5.77;4.60;;;;;;;;;;5034812;28;20420;-80
2023/05/11 11:57:25;;;;;;;7.27;5.07;;;;;;;;;;5034790;28;20444;-79
2023/05/11 11:59:52;;;;;;;6.23;4.80;;;;;;;;;;5034720;28;20401;-82
2023/05/11 12:02:18;;;;;;;5.50;4.10;;;;;;;;;;5034202;28;20513;-82
2023/05/11 12:04:50;;;;;;;6.53;4.47;;;;;;;;;;5034653;28;20401;-81
2023/05/11 12:07:18;;;;;;;6.30;4.57;;;;;;;;;;5034734;28;20496;-80
2023/05/11 12:09:45;;;;;;;7.50;5.50;;;;;;;;;;5049131;28;20448;-80
2023/05/11 12:12:11;;;;;;;6.70;5.53;;;;;;;;;;5054418;28;20733;-80
2023/05/11 12:14:38;;;;;;;6.80;5.20;;;;;;;;;;5036559;28;20782;-80
2023/05/11 12:17:04;;;;;;;8.03;5.70;;;;;;;;;;5053896;28;20428;-84
2023/05/11 12:19:30;;;;;;;6.77;5.10;;;;;;;;;;5036263;28;20779;-87
2023/05/11 12:21:56;;;;;;;6.23;5.27;;;;;;;;;;5036414;28;20434;-83
2023/05/11 12:24:22;;;;;;;5.70;5.10;;;;;;;;;;5054232;28;20904;-82
2023/05/11 12:26:48;;;;;;;7.07;5.80;;;;;;;;;;5054169;28;20458;-80
2023/05/11 12:29:15;;;;;;;6.93;5.67;;;;;;;;;;5054102;28;20472;-80
2023/05/11 12:31:42;;;;;;;8.00;4.53;;;;;;;;;;5053619;28;20174;-80
2023/05/11 12:34:14;;;;;;;7.77;5.70;;;;;;;;;;5054043;28;20423;-82
2023/05/11 12:36:40;;;;;;;8.63;6.77;;;;;;;;;;5054040;28;20478;-82
2023/05/11 12:39:06;;;;;;;7.30;5.20;;;;;;;;;;5053882;28;20412;-81
2023/05/11 12:41:32;;;;;;;7.37;4.80;;;;;;;;;;5053851;28;20410;-82
2023/05/11 12:43:58;;;;;;;11.10;8.07;;;;;;;;;;5036092;28;20537;-82
2023/05/11 12:46:24;;;;;;;9.73;6.90;;;;;;;;;;5053406;28;20411;-83
2023/05/11 12:48:51;;;;;;;9.53;6.23;;;;;;;;;;5053838;28;20407;-81
2023/05/11 12:51:35;;;;;;;11.00;8.33;;;;;;;;;;5053617;28;21000;-81
2023/05/11 12:54:01;;;;;;;14.67;13.10;;;;;;;;;;5053540;28;20502;-81
2023/05/11 12:56:27;;;;;;;9.30;6.90;;;;;;;;;;5053607;28;20553;-81
2023/05/11 12:58:53;;;;;;;7.17;5.33;;;;;;;;;;5053524;28;20697;-81
2023/05/11 13:01:24;;;;;;;8.93;6.50;;;;;;;;;;5053119;28;20260;-82
2023/05/11 13:03:50;;;;;;;7.97;6.73;;;;;;;;;;5053514;28;20175;-81
2023/05/11 13:06:18;;;;;;;7.33;5.80;;;;;;;;;;5053406;28;20980;-80
2023/05/11 13:08:45;;;;;;;7.20;6.03;;;;;;;;;;5053214;28;21116;-83
2023/05/11 13:11:21;;;;;;;6.87;6.07;;;;;;;;;;5035539;28;20775;-81
2023/05/11 13:13:48;;;;;;;7.50;6.10;;;;;;;;;;5052810;28;20407;-81
2023/05/11 13:16:24;;;;;;;6.40;5.60;;;;;;;;;;5052829;28;20839;-80
2023/05/11 13:19:00;;;;;;;9.27;6.80;;;;;;;;;;5053206;28;20744;-84
2023/05/11 13:21:28;;;;;;;6.90;5.80;;;;;;;;;;5053130;28;20405;-82
2023/05/11 13:23:54;;;;;;;6.30;4.90;;;;;;;;;;5053216;28;20505;-81
2023/05/11 13:26:26;;;;;;;8.17;5.87;;;;;;;;;;5035258;28;20477;-81
2023/05/11 13:28:53;;;;;;;6.83;5.73;;;;;;;;;;5052961;28;20426;-81
2023/05/11 13:31:18;;;;;;;8.37;6.10;;;;;;;;;;5052631;28;20511;-80
2023/05/11 13:33:51;;;;;;;8.40;5.87;;;;;;;;;;5052952;28;20516;-80
2023/05/11 13:36:17;;;;;;;6.03;5.20;;;;;;;;;;5052822;28;20751;-81
2023/05/11 13:38:43;;;;;;;7.03;5.70;;;;;;;;;;5052884;28;20472;-81
2023/05/11 13:41:09;;;;;;;8.20;7.20;;;;;;;;;;5052776;28;20424;-81
2023/05/11 13:43:35;;;;;;;7.30;6.20;;;;;;;;;;5052943;28;20422;-81
2023/05/11 13:46:04;;;;;;;7.10;6.40;;;;;;;;;;5052499;28;20833;-81
2023/05/11 13:48:30;;;;;;;7.60;6.80;;;;;;;;;;5052825;28;20498;-82
2023/05/11 13:50:56;;;;;;;7.13;5.70;;;;;;;;;;5052726;28;20423;-83
2023/05/11 13:53:22;;;;;;;7.90;5.40;;;;;;;;;;5052591;28;20469;-83
2023/05/11 13:55:48;;;;;;;8.90;6.23;;;;;;;;;;5052553;28;20964;-82
2023/05/11 13:58:14;;;;;;;7.47;6.60;;;;;;;;;;5052704;28;20482;-82
2023/05/11 14:00:40;;;;;;;8.17;5.83;;;;;;;;;;5047909;28;20175;-82
2023/05/11 14:03:06;;;;;;;7.33;6.47;;;;;;;;;;5042849;28;20176;-83
2023/05/11 14:05:32;;;;;;;6.60;5.97;;;;;;;;;;5041131;28;20413;-82
2023/05/11 14:07:58;;;;;;;6.63;5.40;;;;;;;;;;5042247;28;20504;-85
2023/05/11 14:10:24;;;;;;;7.37;5.80;;;;;;;;;;5042508;28;20431;-83
2023/05/11 14:12:50;;;;;;;7.33;6.17;;;;;;;;;;5041013;28;20307;-84
2023/05/11 14:15:16;;;;;;;7.33;5.40;;;;;;;;;;5042302;28;20251;-84
2023/05/11 14:17:43;;;;;;;5.67;5.17;;;;;;;;;;5042069;28;20209;-84
2023/05/11 14:20:09;;;;;;;9.30;6.13;;;;;;;;;;5038289;28;20462;-86
2023/05/11 14:22:35;;;;;;;5.73;5.13;;;;;;;;;;5034723;28;20423;-85
2023/05/11 14:25:01;;;;;;;5.93;5.13;;;;;;;;;;5042773;28;20938;-86
2023/05/11 14:27:27;;;;;;;7.00;5.40;;;;;;;;;;5045184;28;20216;-85
2023/05/11 14:29:53;;;;;;;6.17;5.20;;;;;;;;;;5040835;28;20191;-85
2023/05/11 14:32:19;;;;;;;5.93;5.20;;;;;;;;;;5042193;28;21008;-85
2023/05/11 14:34:46;;;;;;;7.17;5.47;;;;;;;;;;5045365;28;20510;-83
2023/05/11 14:37:12;;;;;;;5.90;4.87;;;;;;;;;;5046518;28;20463;-88
2023/05/11 14:39:39;;;;;;;7.63;6.17;;;;;;;;;;5026668;28;20852;-87
2023/05/11 14:42:05;;;;;;;7.50;6.47;;;;;;;;;;5045716;28;20423;-87